100LL.CA
Aviation Fuel Pricing for Canadians
Please upgrade your browser - Tested with IE9, FireFox, Chrome, Safari

Fuel Airports Other Help
Prices Economy Info List METAR/TAF Kneeboard Help

Reference Airport: DEASE LAKE, BC
N 58 25 20  W 130 01 53
Provinces to show:

CYDL DEASE LAKE, BC
WEATHER
METARCYDL 221527Z AUTO VRB02KT 9SM -RA OVC060 11/10 A2970 RMK SLP062 DENSITY ALT 3100FT
TAFTAF CYDL 221140Z 2212/2223 VRB03KT P6SM FEW040 OVC070 TEMPO 2212/2221 P6SM -SHRA BKN040 OVC070 FM222100 24006KT P6SM BKN070 TEMPO 2221/2223 P6SM -SHRA VCTS BKN070CB RMK FCST BASED ON AUTO OBS. NXT FCST BY 221800Z
OTHER SITES

FlightAware

FltPlan

Google Maps

SkyVector
FUEL
FBO 100LL
member
100LL
public
JETA MOGAS
Opr (2023-10-02)2.8672.800
  Note: https://www.deaseairport.ca/aiport-services
Canada Flight Supplement - CYDL
(opens in new tab/window)


Please Send Updates!

Desktop Version ]  [ Mobile Version ]  [ Disclaimer ]